KBTV/BTV METAR and TAF weather

Enter ICAO airport designator
Station Type Date Time Source
KBTV METAR 2022/01/27 22:54 UTC NOAA

KBTV 272254Z 19016G24KT 10SM OVC150 M06/M16 A3010 RMK AO2 SLP200 T10561156 $


Station Type Date Time Source
KBTV Decoded METAR 2022/01/27 22:54 UTC NOAA

BURLINGTON INTERNATIONAL, VT, United States (KBTV) 44-28N 73-09W 105M
Jan 27, 2022 - 05:54 PM EST / 2022.01.27 2254 UTC
Wind: from the S (190 degrees) at 18 MPH (16 KT) gusting to 28 MPH (24 KT):0
Visibility: 10 mile(s):0
Sky conditions: overcast
Temperature: 21.9 F (-5.6 C)
Windchill: 6 F (-14 C):1
Dew Point: 3.9 F (-15.6 C)
Relative Humidity: 45%
Pressure (altimeter): 30.1 in. Hg (1019 hPa)
ob: KBTV 272254Z 19016G24KT 10SM OVC150 M06/M16 A3010 RMK AO2 SLP200 T10561156
cycle: 23

Station Type Date Time Source
KBTV TAF 2022/01/27 18:42 UTC NOAA

TAF KBTV 271740Z 2718/2818 18017G28KT P6SM SCT150
FM280200 19013KT P6SM BKN050
FM281200 19007KT P6SM BKN035
FM281500 34013KT P6SM BKN025

Example: see airport list